Time;durP1;ratioP1;P1;durP2;ratioP2;P2;SDS_P1;SDS_P2;PMS_P1;PMS_P2;Temp;Humidity;BMP_temperature;BMP_pressure;BME280_temperature;BME280_humidity;BME280_pressure;Samples;Min_cycle;Max_cycle;Signal;HPM_P1;HPM_P2
2023/02/11 00:01:32;;;;;;;36.27;14.83;;;1.60;99.90;;;;;;5093725;28;20027;-72
2023/02/11 00:03:59;;;;;;;32.77;15.50;;;1.60;99.90;;;;;;5114160;28;20057;-72
2023/02/11 00:06:26;;;;;;;33.57;14.73;;;1.60;99.90;;;;;;5116145;28;20112;-72
2023/02/11 00:08:52;;;;;;;35.93;15.70;;;1.50;99.90;;;;;;5098028;28;20024;-72
2023/02/11 00:11:20;;;;;;;33.60;15.33;;;1.50;99.90;;;;;;5115467;28;20028;-73
2023/02/11 00:13:47;;;;;;;34.13;15.30;;;1.40;99.90;;;;;;5081443;28;20027;-72
2023/02/11 00:16:15;;;;;;;33.40;15.17;;;1.40;99.90;;;;;;5116089;28;20028;-72
2023/02/11 00:18:41;;;;;;;31.83;15.03;;;1.40;99.90;;;;;;5097406;28;20046;-72
2023/02/11 00:21:09;;;;;;;33.57;15.87;;;1.40;99.90;;;;;;5077832;28;20469;-73
2023/02/11 00:23:34;;;;;;;34.30;15.73;;;1.40;99.90;;;;;;5095229;28;20050;-72
2023/02/11 00:26:00;;;;;;;31.23;14.80;;;1.30;99.90;;;;;;5095546;28;20020;-72
2023/02/11 00:28:25;;;;;;;31.67;14.53;;;1.30;99.90;;;;;;5076939;28;20020;-72
2023/02/11 00:30:55;;;;;;;34.03;15.10;;;1.30;99.90;;;;;;5077120;28;20089;-72
2023/02/11 00:33:21;;;;;;;35.27;16.17;;;1.30;99.90;;;;;;5094329;28;20030;-71
2023/02/11 00:35:46;;;;;;;34.90;16.33;;;1.30;99.90;;;;;;5076655;28;20040;-71
2023/02/11 00:38:12;;;;;;;35.90;15.87;;;1.30;99.90;;;;;;5094868;28;20032;-73
2023/02/11 00:40:37;;;;;;;36.77;16.33;;;1.30;99.90;;;;;;5094782;28;20031;-72
2023/02/11 00:43:03;;;;;;;34.63;15.03;;;1.30;99.90;;;;;;5094951;28;20060;-72
2023/02/11 00:45:29;;;;;;;35.80;16.57;;;1.30;99.90;;;;;;5076392;28;20028;-72
2023/02/11 00:47:55;;;;;;;37.43;16.57;;;1.30;99.90;;;;;;5076770;28;20032;-72
2023/02/11 00:50:21;;;;;;;36.13;16.27;;;1.30;99.90;;;;;;5106197;28;20084;-72
2023/02/11 00:52:47;;;;;;;36.70;16.43;;;1.30;99.90;;;;;;5076773;28;20032;-72
2023/02/11 00:55:12;;;;;;;32.77;16.17;;;1.20;99.90;;;;;;5080842;28;20024;-72
2023/02/11 00:57:38;;;;;;;42.10;16.90;;;1.20;99.90;;;;;;5094164;28;20103;-72
2023/02/11 01:00:06;;;;;;;36.23;16.50;;;1.20;99.90;;;;;;5076837;28;20020;-72
2023/02/11 01:02:32;;;;;;;35.00;16.87;;;1.20;99.90;;;;;;5075903;28;20545;-72
2023/02/11 01:04:58;;;;;;;39.27;16.53;;;1.20;99.90;;;;;;5076429;28;20063;-72
2023/02/11 01:07:24;;;;;;;34.03;16.03;;;1.20;99.90;;;;;;5075920;28;20115;-72
2023/02/11 01:09:50;;;;;;;40.50;16.87;;;1.20;99.90;;;;;;5076350;28;20020;-72
2023/02/11 01:12:16;;;;;;;41.17;16.80;;;1.30;99.90;;;;;;5076517;28;20096;-73
2023/02/11 01:14:41;;;;;;;34.97;16.20;;;1.30;99.90;;;;;;5093348;28;20492;-72
2023/02/11 01:17:07;;;;;;;37.37;16.40;;;1.30;99.90;;;;;;5094063;28;20035;-72
2023/02/11 01:19:32;;;;;;;40.03;17.63;;;1.40;99.90;;;;;;5087468;28;20027;-72
2023/02/11 01:21:58;;;;;;;41.50;17.90;;;1.40;99.90;;;;;;5114203;28;20044;-72
2023/02/11 01:24:24;;;;;;;33.10;16.00;;;1.40;99.90;;;;;;5114117;28;20050;-74
2023/02/11 01:26:49;;;;;;;37.90;17.57;;;1.40;99.90;;;;;;5096062;28;20028;-74
2023/02/11 01:29:15;;;;;;;38.83;17.70;;;1.40;99.90;;;;;;5096234;28;20034;-72
2023/02/11 01:31:41;;;;;;;43.30;18.80;;;1.50;99.90;;;;;;5114015;28;20019;-72
2023/02/11 01:34:06;;;;;;;36.70;17.63;;;1.50;99.90;;;;;;5095921;28;20184;-72
2023/02/11 01:36:32;;;;;;;40.57;18.13;;;1.50;99.90;;;;;;5113141;28;20028;-72
2023/02/11 01:38:57;;;;;;;38.17;17.30;;;1.50;99.90;;;;;;5114109;28;20480;-72
2023/02/11 01:41:23;;;;;;;38.63;18.13;;;1.50;99.90;;;;;;5113643;28;20027;-71
2023/02/11 01:43:49;;;;;;;38.40;18.83;;;1.50;99.90;;;;;;5113872;28;20414;-72
2023/02/11 01:46:32;;;;;;;39.43;17.33;;;1.50;99.90;;;;;;5095503;28;20050;-72
2023/02/11 01:49:09;;;;;;;39.83;18.33;;;1.60;99.90;;;;;;5095780;28;20035;-72
2023/02/11 01:51:45;;;;;;;39.97;18.27;;;1.60;99.90;;;;;;5095195;28;20023;-72
2023/02/11 01:59:58;;;;;;;44.23;17.93;;;1.60;99.90;;;;;;5114097;28;20064;-72
2023/02/11 02:02:35;;;;;;;37.50;17.50;;;1.60;99.90;;;;;;5095171;28;20050;-72
2023/02/11 02:05:28;;;;;;;40.00;18.43;;;1.60;99.90;;;;;;5114155;28;20503;-72
2023/02/11 02:08:14;;;;;;;41.13;17.63;;;1.60;99.90;;;;;;5044705;28;20499;-72
2023/02/11 02:10:42;;;;;;;35.57;17.00;;;1.60;99.90;;;;;;5095616;28;20269;-72
2023/02/11 02:13:09;;;;;;;41.37;18.33;;;1.60;99.90;;;;;;5095637;28;20030;-72
2023/02/11 02:15:37;;;;;;;37.60;18.00;;;1.60;99.90;;;;;;5113358;28;20062;-72
2023/02/11 02:18:11;;;;;;;38.80;18.37;;;1.60;99.90;;;;;;5095271;28;20480;-72
2023/02/11 02:20:40;;;;;;;35.53;16.70;;;1.60;99.90;;;;;;5095004;28;20042;-71
2023/02/11 02:23:17;;;;;;;38.33;17.23;;;1.60;99.90;;;;;;5113847;28;20058;-71
2023/02/11 02:26:02;;;;;;;38.53;17.57;;;1.60;99.90;;;;;;5094868;28;20050;-73
2023/02/11 02:28:37;;;;;;;39.57;17.70;;;1.60;99.90;;;;;;5094874;28;20058;-71
2023/02/11 02:31:30;;;;;;;35.73;16.40;;;1.70;99.90;;;;;;5113628;28;20024;-72
2023/02/11 02:34:11;;;;;;;37.87;16.93;;;1.70;99.90;;;;;;5095260;28;20062;-72
2023/02/11 02:36:46;;;;;;;36.87;17.70;;;1.70;99.90;;;;;;5094873;28;20114;-72
2023/02/11 02:39:22;;;;;;;37.97;16.63;;;1.60;99.90;;;;;;5095416;28;20118;-72
2023/02/11 02:41:49;;;;;;;39.03;17.67;;;1.60;99.90;;;;;;5113183;28;20077;-72
2023/02/11 02:44:15;;;;;;;37.43;17.30;;;1.70;99.90;;;;;;5113537;28;20020;-73
2023/02/11 02:46:41;;;;;;;39.17;16.73;;;1.60;99.90;;;;;;5094584;28;20538;-72
2023/02/11 02:49:12;;;;;;;37.57;17.30;;;1.70;99.90;;;;;;5095122;28;20031;-73
2023/02/11 02:52:00;;;;;;;35.22;16.67;;;1.70;99.90;;;;;;5094571;28;20491;-73
2023/02/11 02:54:41;;;;;;;36.60;16.20;;;1.70;99.90;;;;;;5112470;28;20118;-75
2023/02/11 02:57:37;;;;;;;37.53;15.97;;;1.60;99.90;;;;;;5113285;28;20039;-73
2023/02/11 03:00:25;;;;;;;35.20;16.17;;;1.60;99.90;;;;;;5113041;28;20023;-73
2023/02/11 03:03:23;;;;;;;35.17;16.77;;;1.60;99.90;;;;;;5095033;28;20081;-73
2023/02/11 03:05:55;;;;;;;37.77;17.07;;;1.60;99.90;;;;;;5089535;28;20046;-73
2023/02/11 03:08:41;;;;;;;38.63;16.83;;;1.50;99.90;;;;;;5112849;28;20072;-72
2023/02/11 03:11:09;;;;;;;34.93;16.10;;;1.50;99.90;;;;;;5112874;28;20375;-71
2023/02/11 03:13:38;;;;;;;37.33;16.77;;;1.50;99.90;;;;;;5094249;28;20024;-73
2023/02/11 03:16:13;;;;;;;38.00;17.97;;;1.60;99.90;;;;;;5112757;28;20451;-72
2023/02/11 03:18:43;;;;;;;41.83;17.37;;;1.60;99.90;;;;;;5094239;28;20077;-73
2023/02/11 03:21:09;;;;;;;38.10;16.20;;;1.60;99.90;;;;;;5112592;28;20103;-72
2023/02/11 03:23:52;;;;;;;36.00;16.37;;;1.50;99.90;;;;;;5094277;28;20024;-72
2023/02/11 03:26:24;;;;;;;38.97;16.57;;;1.60;99.90;;;;;;5095000;28;20037;-72
2023/02/11 03:29:08;;;;;;;39.37;17.23;;;1.50;99.90;;;;;;5094400;28;20027;-72
2023/02/11 03:32:05;;;;;;;38.47;16.87;;;1.50;99.90;;;;;;5094193;28;20114;-72
2023/02/11 03:34:52;;;;;;;35.07;16.67;;;1.50;99.90;;;;;;5112370;28;20023;-72
2023/02/11 03:37:18;;;;;;;33.40;16.43;;;1.50;99.90;;;;;;5094725;28;20489;-72
2023/02/11 03:39:50;;;;;;;41.73;16.57;;;1.50;99.90;;;;;;5096838;28;20024;-72
2023/02/11 03:42:18;;;;;;;41.10;17.73;;;1.50;99.90;;;;;;5098832;28;20024;-72
2023/02/11 03:44:57;;;;;;;37.03;16.50;;;1.40;99.90;;;;;;5098025;28;20597;-72
2023/02/11 03:47:26;;;;;;;37.23;16.00;;;1.40;99.90;;;;;;5098581;28;20100;-72
2023/02/11 03:49:54;;;;;;;38.70;16.70;;;1.40;99.90;;;;;;5098484;28;20032;-72
2023/02/11 03:52:21;;;;;;;37.00;16.97;;;1.40;99.90;;;;;;5098390;28;20024;-72
2023/02/11 03:54:52;;;;;;;36.83;16.73;;;1.40;99.90;;;;;;5097749;28;20285;-72
2023/02/11 03:57:17;;;;;;;37.47;15.70;;;1.40;99.90;;;;;;5098518;28;20035;-72
2023/02/11 03:59:56;;;;;;;34.03;16.10;;;1.40;99.90;;;;;;5097829;28;20046;-72
2023/02/11 04:02:29;;;;;;;32.10;15.53;;;1.40;99.90;;;;;;5098258;28;20020;-72
2023/02/11 04:04:54;;;;;;;34.73;15.37;;;1.50;99.90;;;;;;5116627;28;20023;-72
2023/02/11 04:07:20;;;;;;;32.33;14.67;;;1.50;99.90;;;;;;5098164;28;20030;-72
2023/02/11 04:09:45;;;;;;;36.23;15.40;;;1.50;99.90;;;;;;5115723;28;20031;-72
2023/02/11 04:12:11;;;;;;;32.03;14.43;;;1.50;99.90;;;;;;5116030;28;20031;-72
2023/02/11 04:14:37;;;;;;;34.73;16.33;;;1.60;99.90;;;;;;5115925;28;20063;-72
2023/02/11 04:17:03;;;;;;;33.87;16.40;;;1.60;99.90;;;;;;5116096;28;20047;-71
2023/02/11 04:19:28;;;;;;;36.67;16.23;;;1.60;99.90;;;;;;5097389;28;20078;-73
2023/02/11 04:21:54;;;;;;;33.87;16.47;;;1.60;99.90;;;;;;5094326;28;20048;-72
2023/02/11 04:24:20;;;;;;;40.97;17.37;;;1.60;99.90;;;;;;5095816;28;20112;-72
2023/02/11 04:26:45;;;;;;;41.40;18.27;;;1.60;99.90;;;;;;5093888;28;20469;-72
2023/02/11 04:29:11;;;;;;;37.03;17.23;;;1.60;99.90;;;;;;5094439;28;20110;-72
2023/02/11 04:31:36;;;;;;;42.47;18.10;;;1.60;99.90;;;;;;5093844;28;20024;-73
2023/02/11 04:34:02;;;;;;;34.50;15.87;;;1.50;99.90;;;;;;5094539;28;20032;-72
2023/02/11 04:36:28;;;;;;;39.70;17.10;;;1.60;99.90;;;;;;5095491;28;20377;-72
2023/02/11 04:38:53;;;;;;;38.17;16.77;;;1.60;99.90;;;;;;5095404;28;20065;-72
2023/02/11 04:41:19;;;;;;;39.17;17.73;;;1.60;99.90;;;;;;5094194;28;20028;-72
2023/02/11 04:43:45;;;;;;;42.17;17.03;;;1.50;99.90;;;;;;5093571;28;20039;-72
2023/02/11 04:46:10;;;;;;;40.40;17.17;;;1.50;99.90;;;;;;5095177;28;20028;-72
2023/02/11 04:48:36;;;;;;;34.77;16.80;;;1.50;99.90;;;;;;5094400;28;20031;-72
2023/02/11 04:51:02;;;;;;;40.13;17.43;;;1.50;99.90;;;;;;5085949;28;20025;-72
2023/02/11 04:53:27;;;;;;;38.73;18.17;;;1.50;99.90;;;;;;5073752;28;20070;-72
2023/02/11 04:55:53;;;;;;;39.03;16.70;;;1.50;99.90;;;;;;5073007;28;20074;-72
2023/02/11 04:58:19;;;;;;;33.43;17.30;;;1.50;99.90;;;;;;5074756;28;20036;-72
2023/02/11 05:00:44;;;;;;;43.33;17.17;;;1.50;99.90;;;;;;5074310;28;20032;-72
2023/02/11 05:03:10;;;;;;;38.00;16.73;;;1.50;99.90;;;;;;5074770;28;20046;-72
2023/02/11 05:05:40;;;;;;;36.77;17.00;;;1.50;99.90;;;;;;5072963;28;20127;-72
2023/02/11 05:08:07;;;;;;;37.20;17.40;;;1.50;99.90;;;;;;5073422;28;20021;-72
2023/02/11 05:10:33;;;;;;;35.33;16.53;;;1.50;99.90;;;;;;5073809;28;20367;-72
2023/02/11 05:12:58;;;;;;;40.63;17.50;;;1.50;99.90;;;;;;5073227;28;20036;-72
2023/02/11 05:15:24;;;;;;;41.37;17.30;;;1.50;99.90;;;;;;5073106;28;20123;-72
2023/02/11 05:17:50;;;;;;;34.43;16.37;;;1.50;99.90;;;;;;5072639;28;20215;-72
2023/02/11 05:20:15;;;;;;;37.70;17.30;;;1.50;99.90;;;;;;5074197;28;20036;-72
2023/02/11 05:22:41;;;;;;;39.37;16.87;;;1.50;99.90;;;;;;5075823;28;20071;-72
2023/02/11 05:25:07;;;;;;;37.53;16.27;;;1.50;99.90;;;;;;5076453;28;20028;-72
2023/02/11 05:27:33;;;;;;;39.10;17.13;;;1.50;99.90;;;;;;5075789;28;20477;-72
2023/02/11 05:29:58;;;;;;;37.40;16.50;;;1.50;99.90;;;;;;5076313;28;20036;-72
2023/02/11 05:32:24;;;;;;;38.80;16.40;;;1.50;99.90;;;;;;5076295;28;20024;-72
2023/02/11 05:34:49;;;;;;;36.67;15.77;;;1.50;99.90;;;;;;5075623;28;20059;-72
2023/02/11 05:37:15;;;;;;;33.37;15.73;;;1.50;99.90;;;;;;5076196;28;20038;-72
2023/02/11 05:39:41;;;;;;;37.67;16.43;;;1.50;99.90;;;;;;5075590;28;20032;-72
2023/02/11 05:42:06;;;;;;;34.37;15.47;;;1.50;99.90;;;;;;5076028;28;20110;-72
2023/02/11 05:44:32;;;;;;;37.80;16.67;;;1.50;99.90;;;;;;5094180;28;20081;-76
2023/02/11 05:46:58;;;;;;;38.47;16.33;;;1.50;99.90;;;;;;5075846;28;20074;-72
2023/02/11 05:49:23;;;;;;;35.93;16.33;;;1.50;99.90;;;;;;5075968;28;20074;-72
2023/02/11 05:51:49;;;;;;;35.97;15.70;;;1.50;99.90;;;;;;5075399;28;20476;-72
2023/02/11 05:54:15;;;;;;;30.80;15.47;;;1.40;99.90;;;;;;5075763;28;20032;-72
2023/02/11 05:56:41;;;;;;;37.43;15.77;;;1.40;99.90;;;;;;5075307;28;20064;-72
2023/02/11 05:59:06;;;;;;;36.30;16.63;;;1.30;99.90;;;;;;5093644;28;20452;-72
2023/02/11 06:01:32;;;;;;;32.67;15.70;;;1.30;99.90;;;;;;5093285;28;20077;-72
2023/02/11 06:03:58;;;;;;;38.80;16.43;;;1.30;99.90;;;;;;5093519;28;20480;-72
2023/02/11 06:06:24;;;;;;;37.43;16.27;;;1.30;99.90;;;;;;5075659;28;20020;-72
2023/02/11 06:08:50;;;;;;;36.70;16.17;;;1.20;99.90;;;;;;5075040;28;20027;-72
2023/02/11 06:11:16;;;;;;;34.90;16.03;;;1.20;99.90;;;;;;5075592;28;20028;-72
2023/02/11 06:13:42;;;;;;;39.07;17.23;;;1.20;99.90;;;;;;5074498;28;20043;-73
2023/02/11 06:16:08;;;;;;;37.80;16.30;;;1.20;99.90;;;;;;5075122;28;20392;-73
2023/02/11 06:18:34;;;;;;;38.37;17.53;;;1.10;99.90;;;;;;5075113;28;20039;-74
2023/02/11 06:21:00;;;;;;;36.87;15.87;;;1.10;99.90;;;;;;5092609;28;20024;-72
2023/02/11 06:23:25;;;;;;;33.00;15.80;;;1.10;99.90;;;;;;5075443;28;20028;-71
2023/02/11 06:25:51;;;;;;;36.10;16.77;;;1.10;99.90;;;;;;5074460;28;20115;-72
2023/02/11 06:28:18;;;;;;;35.07;16.97;;;1.10;99.90;;;;;;5075223;28;20039;-72
2023/02/11 06:30:43;;;;;;;35.20;16.53;;;1.10;99.90;;;;;;5092278;28;20028;-73
2023/02/11 06:33:09;;;;;;;34.53;17.00;;;1.20;99.90;;;;;;5093001;28;20047;-73
2023/02/11 06:35:37;;;;;;;35.83;17.23;;;1.20;99.90;;;;;;5092910;28;20035;-72
2023/02/11 06:38:03;;;;;;;39.13;16.87;;;1.20;99.90;;;;;;5074771;28;20032;-73
2023/02/11 06:40:29;;;;;;;36.17;17.87;;;1.20;99.90;;;;;;5074786;28;20024;-72
2023/02/11 06:42:54;;;;;;;40.00;18.20;;;1.20;99.90;;;;;;5074330;28;20028;-72
2023/02/11 06:45:20;;;;;;;36.10;16.60;;;1.20;99.90;;;;;;5092703;28;20059;-74
2023/02/11 06:47:46;;;;;;;40.90;18.73;;;1.20;99.90;;;;;;5073291;28;20031;-73
2023/02/11 06:50:13;;;;;;;35.93;17.17;;;1.30;99.90;;;;;;5074544;28;20036;-73
2023/02/11 06:52:39;;;;;;;41.37;18.23;;;1.30;99.90;;;;;;5074196;28;20031;-76
2023/02/11 06:55:05;;;;;;;42.77;18.63;;;1.30;99.90;;;;;;5074364;28;20023;-73
2023/02/11 06:57:31;;;;;;;40.27;17.63;;;1.30;99.90;;;;;;5074738;28;20027;-73
2023/02/11 06:59:57;;;;;;;37.97;17.80;;;1.40;99.90;;;;;;5074108;28;20491;-73
2023/02/11 07:02:22;;;;;;;39.73;18.23;;;1.30;99.90;;;;;;5092695;28;20020;-72
2023/02/11 07:04:48;;;;;;;39.27;17.47;;;1.40;99.90;;;;;;5073888;28;20037;-73
2023/02/11 07:07:14;;;;;;;39.87;18.23;;;1.40;99.90;;;;;;5074359;28;20095;-73
2023/02/11 07:09:40;;;;;;;39.13;18.53;;;1.40;99.90;;;;;;5073963;28;20035;-76
2023/02/11 07:12:08;;;;;;;45.37;19.23;;;1.50;99.90;;;;;;5074182;28;20024;-72
2023/02/11 07:14:33;;;;;;;40.77;18.83;;;1.40;99.90;;;;;;5074319;28;20032;-72
2023/02/11 07:16:59;;;;;;;40.27;18.97;;;1.50;99.90;;;;;;5073776;28;20025;-72
2023/02/11 07:19:24;;;;;;;40.10;18.87;;;1.50;99.90;;;;;;5092822;28;20024;-72
2023/02/11 07:21:50;;;;;;;41.93;18.60;;;1.50;99.90;;;;;;5073760;28;20127;-72
2023/02/11 07:24:16;;;;;;;42.67;19.20;;;1.60;99.90;;;;;;5074369;28;20039;-72
2023/02/11 07:26:41;;;;;;;43.67;18.23;;;1.60;99.90;;;;;;5073624;28;20441;-76
2023/02/11 07:29:07;;;;;;;39.73;18.23;;;1.60;99.90;;;;;;5074014;28;20024;-73
2023/02/11 07:31:33;;;;;;;42.20;19.40;;;1.60;99.90;;;;;;5074411;28;20111;-72
2023/02/11 07:34:00;;;;;;;40.57;18.30;;;1.70;99.90;;;;;;5073698;28;20077;-73
2023/02/11 07:36:28;;;;;;;41.23;19.03;;;1.70;99.90;;;;;;5092520;28;20103;-73
2023/02/11 07:38:53;;;;;;;44.00;19.37;;;1.70;99.90;;;;;;5073674;28;20028;-73
2023/02/11 07:41:22;;;;;;;39.67;18.77;;;1.70;99.90;;;;;;5074371;28;20028;-73
2023/02/11 07:43:48;;;;;;;42.10;20.17;;;1.70;99.90;;;;;;5091783;28;20028;-74
2023/02/11 07:46:22;;;;;;;42.37;18.93;;;1.60;99.90;;;;;;5074160;28;20033;-73
2023/02/11 07:48:48;;;;;;;40.87;20.17;;;1.70;99.90;;;;;;5073576;28;20485;-73
2023/02/11 07:51:16;;;;;;;44.03;19.87;;;1.70;99.90;;;;;;5074323;28;20051;-72
2023/02/11 07:53:42;;;;;;;44.67;20.40;;;1.70;99.90;;;;;;5073300;28;20031;-73
2023/02/11 07:56:09;;;;;;;45.90;20.57;;;1.60;99.90;;;;;;5092160;28;20393;-74
2023/02/11 07:58:35;;;;;;;44.03;20.20;;;1.60;99.90;;;;;;5074184;28;20415;-74
2023/02/11 08:01:06;;;;;;;46.93;20.77;;;1.60;99.90;;;;;;5073729;28;20028;-72
2023/02/11 08:03:34;;;;;;;47.57;20.10;;;1.60;99.90;;;;;;5092595;28;20465;-73
2023/02/11 08:06:07;;;;;;;49.83;21.90;;;1.50;99.90;;;;;;5091492;28;20032;-73
2023/02/11 08:08:33;;;;;;;45.67;19.97;;;1.50;99.90;;;;;;5073918;28;20020;-73
2023/02/11 08:11:11;;;;;;;45.77;20.63;;;1.50;99.90;;;;;;5091684;28;20210;-73
2023/02/11 08:13:37;;;;;;;43.40;19.90;;;1.40;99.90;;;;;;5074212;28;20024;-73
2023/02/11 08:16:04;;;;;;;43.10;20.23;;;1.50;99.90;;;;;;5073431;28;20039;-73
2023/02/11 08:18:31;;;;;;;50.07;21.73;;;1.40;99.90;;;;;;5074115;28;20472;-73
2023/02/11 08:21:06;;;;;;;47.97;21.67;;;1.50;99.90;;;;;;5073404;28;20024;-73
2023/02/11 08:23:31;;;;;;;43.27;19.97;;;1.40;99.90;;;;;;5092679;28;20032;-73
2023/02/11 08:26:02;;;;;;;46.70;20.57;;;1.40;99.90;;;;;;5094724;28;20032;-73
2023/02/11 08:28:27;;;;;;;49.30;22.10;;;1.50;99.90;;;;;;5095880;28;20548;-73
2023/02/11 08:30:53;;;;;;;40.43;19.53;;;1.50;99.90;;;;;;5077092;28;20032;-73
2023/02/11 08:33:18;;;;;;;45.33;20.37;;;1.50;99.90;;;;;;5095351;28;20024;-73
2023/02/11 08:35:44;;;;;;;42.43;19.77;;;1.50;99.90;;;;;;5076926;28;20028;-73
2023/02/11 08:38:10;;;;;;;43.33;20.17;;;1.50;99.90;;;;;;5077321;28;20028;-73
2023/02/11 08:40:35;;;;;;;46.03;20.93;;;1.60;99.90;;;;;;5095496;28;20051;-73
2023/02/11 08:43:01;;;;;;;42.90;20.30;;;1.60;99.90;;;;;;5076674;28;20023;-72
2023/02/11 08:45:27;;;;;;;44.33;19.87;;;1.70;99.90;;;;;;5077283;28;20024;-73
2023/02/11 08:47:52;;;;;;;40.20;19.20;;;1.80;99.90;;;;;;5094488;28;20035;-73
2023/02/11 08:50:18;;;;;;;45.80;20.03;;;1.80;99.90;;;;;;5077236;28;20058;-73
2023/02/11 08:52:44;;;;;;;43.00;20.10;;;1.80;99.90;;;;;;5076708;28;20389;-76
2023/02/11 08:55:09;;;;;;;42.43;21.03;;;1.80;99.90;;;;;;5094921;28;20044;-72
2023/02/11 08:57:35;;;;;;;43.20;20.37;;;1.80;99.90;;;;;;5095104;28;20035;-73
2023/02/11 09:00:01;;;;;;;41.10;19.57;;;1.80;99.90;;;;;;5076418;28;20031;-73
2023/02/11 09:02:27;;;;;;;44.33;20.17;;;1.80;99.90;;;;;;5076860;28;20028;-73
2023/02/11 09:04:52;;;;;;;41.60;20.67;;;1.80;99.90;;;;;;5094121;28;20031;-73
2023/02/11 09:07:18;;;;;;;43.73;20.47;;;1.80;99.90;;;;;;5076901;28;20020;-73
2023/02/11 09:09:44;;;;;;;42.67;19.70;;;1.90;99.90;;;;;;5076719;28;20060;-73
2023/02/11 09:12:09;;;;;;;39.57;18.83;;;1.90;99.90;;;;;;5076426;28;20388;-73
2023/02/11 09:14:36;;;;;;;42.67;19.33;;;2.00;99.90;;;;;;5094777;28;20107;-73
2023/02/11 09:17:01;;;;;;;46.17;20.07;;;2.00;99.90;;;;;;5075871;28;20036;-73
2023/02/11 09:19:27;;;;;;;45.20;20.80;;;2.00;99.90;;;;;;5094492;28;20436;-73
2023/02/11 09:21:53;;;;;;;42.90;18.93;;;2.10;99.90;;;;;;5075832;28;20127;-73
2023/02/11 09:24:18;;;;;;;40.87;18.93;;;2.10;99.90;;;;;;5076575;28;20028;-73
2023/02/11 09:26:44;;;;;;;40.43;18.63;;;2.20;99.90;;;;;;5094678;28;20483;-73
2023/02/11 09:29:11;;;;;;;43.43;19.97;;;2.30;99.90;;;;;;5075918;28;20480;-73
2023/02/11 09:31:37;;;;;;;44.97;20.13;;;2.40;99.90;;;;;;5076325;28;20028;-73
2023/02/11 09:34:04;;;;;;;40.57;19.70;;;2.40;99.90;;;;;;5075705;28;20036;-73
2023/02/11 09:36:37;;;;;;;43.50;19.57;;;2.50;99.90;;;;;;5074977;28;20035;-73
2023/02/11 09:39:08;;;;;;;38.50;19.37;;;2.60;99.90;;;;;;5075247;28;20028;-76
2023/02/11 09:41:40;;;;;;;37.40;17.02;;;2.70;99.90;;;;;;5072673;28;20036;-74
2023/02/11 09:44:16;;;;;;;36.50;17.90;;;2.80;99.90;;;;;;5075844;28;20036;-75
2023/02/11 09:46:46;;;;;;;38.97;17.80;;;2.90;99.90;;;;;;5075275;28;20032;-75
2023/02/11 09:49:20;;;;;;;35.77;17.30;;;3.00;99.90;;;;;;5075540;28;20030;-76
2023/02/11 09:52:00;;;;;;;37.83;17.90;;;3.20;99.90;;;;;;5093343;28;20050;-79
2023/02/11 09:54:36;;;;;;;42.03;18.63;;;3.30;99.90;;;;;;5093679;28;20423;-76
2023/02/11 09:57:02;;;;;;;37.50;18.43;;;3.50;99.90;;;;;;5075055;28;20484;-75
2023/02/11 09:59:28;;;;;;;38.97;18.40;;;3.60;99.90;;;;;;5075273;28;20406;-78
2023/02/11 10:01:59;;;;;;;32.70;16.67;;;3.70;99.90;;;;;;5074929;28;20032;-74
2023/02/11 10:04:50;;;;;;;34.17;16.73;;;3.70;99.90;;;;;;5075618;28;20103;-73
2023/02/11 10:07:58;;;;;;;33.43;15.73;;;3.80;99.90;;;;;;5074319;28;20032;-77
2023/02/11 10:10:37;;;;;;;31.83;15.33;;;3.90;99.90;;;;;;5065976;28;20475;-75
2023/02/11 10:13:25;;;;;;;33.20;16.03;;;3.90;99.90;;;;;;5074543;28;20016;-75
2023/02/11 10:16:11;;;;;;;34.43;15.00;;;4.00;99.90;;;;;;5067897;28;20032;-75
2023/02/11 10:18:55;;;;;;;34.23;15.50;;;4.10;99.90;;;;;;5058656;28;20088;-75
2023/02/11 10:21:24;;;;;;;33.70;14.23;;;4.20;99.90;;;;;;5075198;28;20044;-75
2023/02/11 10:23:54;;;;;;;37.93;16.53;;;4.40;99.90;;;;;;5090874;28;20028;-75
2023/02/11 10:26:20;;;;;;;32.77;15.90;;;4.40;99.90;;;;;;5080111;28;20016;-75
2023/02/11 10:28:49;;;;;;;35.90;16.80;;;4.50;99.90;;;;;;5077747;28;20051;-74
2023/02/11 10:31:24;;;;;;;31.63;14.93;;;4.50;99.90;;;;;;5091385;28;20055;-74
2023/02/11 10:34:19;;;;;;;32.37;15.27;;;4.60;99.90;;;;;;5077038;28;20044;-75
2023/02/11 10:36:45;;;;;;;32.13;14.60;;;4.70;99.90;;;;;;5066850;28;20489;-74
2023/02/11 10:39:17;;;;;;;29.37;14.07;;;4.80;99.90;;;;;;5087956;28;20016;-74
2023/02/11 10:41:46;;;;;;;28.00;13.48;;;4.80;99.90;;;;;;5091325;28;20114;-74
2023/02/11 10:44:40;;;;;;;27.33;12.63;;;4.90;99.90;;;;;;5074228;28;20127;-76
2023/02/11 10:47:19;;;;;;;25.13;12.93;;;4.90;99.90;;;;;;5079893;28;20028;-76
2023/02/11 10:49:45;;;;;;;24.53;12.60;;;5.00;99.90;;;;;;5084399;28;20119;-76
2023/02/11 10:52:17;;;;;;;27.47;12.97;;;5.00;99.90;;;;;;5073622;28;20048;-75
2023/02/11 10:54:56;;;;;;;;;;;5.00;99.90;;;;;;5091235;28;20024;-76
2023/02/11 10:57:31;;;;;;;27.50;11.97;;;5.00;99.90;;;;;;5090973;28;19908;-78
2023/02/11 10:59:59;;;;;;;28.67;12.97;;;5.10;99.90;;;;;;5075866;28;20028;-74
2023/02/11 11:02:34;;;;;;;28.60;13.07;;;5.20;99.90;;;;;;5089553;28;20035;-75
2023/02/11 11:05:15;;;;;;;26.07;12.40;;;5.20;99.90;;;;;;5083561;28;20119;-75
2023/02/11 11:07:55;;;;;;;26.43;12.30;;;5.30;99.90;;;;;;5084539;28;20035;-74
2023/02/11 11:10:45;;;;;;;28.03;12.93;;;5.30;99.90;;;;;;5089696;28;20023;-77
2023/02/11 11:13:31;;;;;;;24.03;12.07;;;5.40;99.90;;;;;;5078866;28;20416;-77
2023/02/11 11:16:12;;;;;;;30.43;11.13;;;5.50;99.90;;;;;;5076976;28;20029;-76
2023/02/11 11:18:40;;;;;;;28.33;12.63;;;5.60;99.90;;;;;;5075781;28;20047;-75
2023/02/11 11:21:34;;;;;;;24.53;12.23;;;5.60;99.90;;;;;;5084012;28;20067;-75
2023/02/11 11:24:02;;;;;;;26.17;12.57;;;5.80;99.90;;;;;;5088839;28;20035;-74
2023/02/11 11:26:55;;;;;;;25.93;11.20;;;5.90;99.90;;;;;;5077376;28;20179;-75
2023/02/11 11:29:33;;;;;;;25.90;11.70;;;6.00;99.90;;;;;;5102110;28;20020;-75
2023/02/11 11:32:03;;;;;;;24.63;11.80;;;6.00;99.90;;;;;;5089356;28;20369;-78
2023/02/11 11:34:37;;;;;;;24.30;11.00;;;6.10;99.90;;;;;;5095638;28;20031;-78
2023/02/11 11:37:11;;;;;;;24.97;11.90;;;6.10;99.90;;;;;;5086673;28;20028;-76
2023/02/11 11:39:38;;;;;;;25.37;11.80;;;6.20;99.90;;;;;;5094363;28;20023;-76
2023/02/11 11:42:24;;;;;;;24.13;11.23;;;6.20;99.90;;;;;;5078046;28;20077;-75
2023/02/11 11:45:18;;;;;;;25.90;11.63;;;6.20;99.90;;;;;;5097589;28;20077;-83
2023/02/11 11:48:05;;;;;;;24.97;11.20;;;6.40;99.90;;;;;;5077143;28;20493;-77
2023/02/11 11:50:44;;;;;;;25.73;12.10;;;6.40;99.90;;;;;;5090808;28;20024;-76
2023/02/11 11:53:21;;;;;;;26.67;11.83;;;6.60;99.90;;;;;;5091513;28;20305;-76
2023/02/11 11:56:27;;;;;;;24.27;11.83;;;6.70;99.90;;;;;;5087121;28;20034;-75
2023/02/11 11:58:53;;;;;;;27.47;11.40;;;6.80;99.90;;;;;;5009487;28;20022;-77
2023/02/11 12:01:28;;;;;;;27.87;11.60;;;6.90;99.90;;;;;;5013258;28;20468;-75
2023/02/11 12:04:31;;;;;;;26.03;11.83;;;6.90;99.90;;;;;;5012821;28;20037;-75
2023/02/11 12:07:26;;;;;;;25.00;11.27;;;7.00;99.90;;;;;;5011229;28;20037;-74
2023/02/11 12:10:08;;;;;;;26.10;11.93;;;7.00;99.90;;;;;;5006636;28;20034;-74
2023/02/11 12:12:40;;;;;;;26.13;11.80;;;7.10;99.90;;;;;;5013263;28;20053;-75
2023/02/11 12:15:30;;;;;;;24.73;11.63;;;7.10;99.90;;;;;;5012592;28;20487;-78
2023/02/11 12:18:14;;;;;;;21.53;11.50;;;7.20;99.90;;;;;;5012632;28;20076;-74
2023/02/11 12:21:17;;;;;;;29.73;12.30;;;7.40;99.90;;;;;;5013356;28;20033;-76
2023/02/11 12:24:16;;;;;;;24.90;11.10;;;7.50;99.90;;;;;;5013016;28;20064;-75
2023/02/11 12:26:58;;;;;;;24.20;11.73;;;7.70;99.90;;;;;;4997752;28;20108;-76
2023/02/11 12:29:30;;;;;;;;;;;7.90;99.90;;;;;;5046105;28;20115;-78
2023/02/11 12:32:16;;;;;;;23.00;11.13;;;8.10;99.90;;;;;;5091956;28;20026;-77
2023/02/11 12:35:11;;;;;;;24.90;11.60;;;8.20;99.90;;;;;;5081638;28;20473;-78
2023/02/11 12:37:55;;;;;;;22.50;11.48;;;8.50;99.90;;;;;;5096909;28;20114;-74
2023/02/11 12:40:41;;;;;;;22.48;11.00;;;8.80;99.90;;;;;;5095811;28;20081;-74
2023/02/11 12:43:24;;;;;;;23.10;11.07;;;9.00;99.90;;;;;;5084392;28;20024;-75
2023/02/11 12:46:13;;;;;;;20.42;11.05;;;9.10;99.90;;;;;;5083277;28;20492;-74
2023/02/11 12:48:50;;;;;;;19.85;10.50;;;9.30;99.90;;;;;;5094937;28;20392;-77
2023/02/11 12:51:30;;;;;;;22.90;10.68;;;9.30;99.90;;;;;;5076523;28;20020;-77
2023/02/11 12:54:18;;;;;;;19.52;10.45;;;9.50;99.90;;;;;;5076655;28;20032;-76
2023/02/11 12:56:53;;;;;;;20.95;10.80;;;9.80;99.90;;;;;;5076906;28;20024;-76
2023/02/11 12:59:40;;;;;;;21.10;10.95;;;10.00;99.90;;;;;;5077125;28;20028;-76
2023/02/11 13:02:17;;;;;;;22.50;10.90;;;10.40;99.80;;;;;;5077361;28;20378;-76
2023/02/11 13:04:49;;;;;;;18.55;10.20;;;10.80;98.30;;;;;;5097165;28;20334;-76